Time;durP1;ratioP1;P1;durP2;ratioP2;P2;SDS_P1;SDS_P2;PMS_P1;PMS_P2;Temp;Humidity;BMP_temperature;BMP_pressure;BME280_temperature;BME280_humidity;BME280_pressure;Samples;Min_cycle;Max_cycle;Signal;HPM_P1;HPM_P2
2021/09/16 00:00:36;;;;;;;;;;;;;;;8.91;60.38;99852.72;5083744;28;19924;-78
2021/09/16 00:03:02;;;;;;;;;;;;;;;8.93;60.29;99858.78;5109703;28;21274;-76
2021/09/16 00:05:27;;;;;;;;;;;;;;;8.98;60.20;99863.94;5093566;28;19991;-77
2021/09/16 00:07:53;;;;;;;;;;;;;;;9.03;60.49;99867.41;5095310;28;20004;-77
2021/09/16 00:10:19;;;;;;;;;;;;;;;9.03;59.77;99864.81;5079136;28;19942;-77
2021/09/16 00:12:44;;;;;;;;;;;;;;;9.05;59.92;99863.06;5094053;28;19919;-77
2021/09/16 00:15:11;;;;;;;;;;;;;;;9.05;59.88;99870.84;5094459;28;19923;-77
2021/09/16 00:17:36;;;;;;;;;;;;;;;9.03;60.01;99868.25;5052708;28;20306;-78
2021/09/16 00:20:02;;;;;;;;;;;;;;;9.03;59.97;99870.00;5093660;28;19924;-76
2021/09/16 00:22:28;;;;;;;;;;;;;;;9.05;60.15;99868.25;5096863;28;19931;-76
2021/09/16 00:24:54;;;;;;;;;;;;;;;9.03;60.14;99872.59;5095482;28;19923;-79
2021/09/16 00:27:19;;;;;;;;;;;;;;;9.06;60.02;99882.09;5079978;28;19942;-78
2021/09/16 00:29:45;;;;;;;;;;;;;;;9.07;60.09;99876.91;5068999;28;20010;-77
2021/09/16 00:32:10;;;;;;;;;;;;;;;9.07;60.14;99876.91;5094579;28;20040;-77
2021/09/16 00:34:36;;;;;;;;;;;;;;;9.10;60.21;99876.03;5109568;28;19921;-77
2021/09/16 00:37:02;;;;;;;;;;;;;;;9.12;59.90;99875.16;5095912;28;20022;-78
2021/09/16 00:39:28;;;;;;;;;;;;;;;9.10;60.10;99882.09;5086680;28;19919;-78
2021/09/16 00:41:53;;;;;;;;;;;;;;;9.14;59.87;99886.41;5094860;28;19919;-79
2021/09/16 00:44:19;;;;;;;;;;;;;;;9.11;59.97;99886.41;5079658;28;19923;-77
2021/09/16 00:46:44;;;;;;;;;;;;;;;9.11;59.70;99885.56;5111886;28;19926;-77
2021/09/16 00:49:10;;;;;;;;;;;;;;;9.14;59.90;99895.94;5087894;27;19963;-78
2021/09/16 00:51:38;;;;;;;;;;;;;;;9.15;59.93;99903.72;5105359;27;19990;-78
2021/09/16 00:54:04;;;;;;;;;;;;;;;9.17;59.67;99899.38;5092176;27;19920;-76
2021/09/16 00:56:30;;;;;;;;;;;;;;;9.15;59.94;99903.72;5116515;27;20019;-76
2021/09/16 00:58:58;;;;;;;;;;;;;;;9.14;59.95;99904.59;5116254;27;19964;-77
2021/09/16 01:01:26;;;;;;;;;;;;;;;9.16;59.94;99905.44;5096948;27;19948;-77
2021/09/16 01:03:53;;;;;;;;;;;;;;;9.15;59.70;99910.66;5098474;27;20314;-77
2021/09/16 01:06:19;;;;;;;;;;;;;;;9.15;59.45;99910.66;5100169;27;19930;-78
2021/09/16 01:08:45;;;;;;;;;;;;;;;9.16;59.84;99910.66;5088663;27;19920;-76
2021/09/16 01:11:11;;;;;;;;;;;;;;;9.17;59.90;99909.78;5103434;27;19920;-77
2021/09/16 01:13:38;;;;;;;;;;;;;;;9.22;59.75;99906.31;5117134;27;19920;-77
2021/09/16 01:16:03;;;;;;;;;;;;;;;9.29;59.36;99919.28;5098773;27;19941;-78
2021/09/16 01:18:29;;;;;;;;;;;;;;;9.25;59.52;99912.34;5103254;27;19911;-76
2021/09/16 01:20:55;;;;;;;;;;;;;;;9.22;59.18;99914.09;5068969;27;19928;-77
2021/09/16 01:23:24;;;;;;;;;;;;;;;9.22;59.47;99912.34;5096722;27;19920;-76
2021/09/16 01:25:49;;;;;;;;;;;;;;;9.23;59.28;99915.84;5115058;27;19938;-77
2021/09/16 01:28:15;;;;;;;;;;;;;;;9.21;59.26;99918.41;5112919;27;19923;-77
2021/09/16 01:30:40;;;;;;;;;;;;;;;9.19;59.29;99923.63;5116026;27;20045;-77
2021/09/16 01:33:06;;;;;;;;;;;;;;;9.14;59.53;99927.94;5116528;27;20010;-78
2021/09/16 01:35:35;;;;;;;;;;;;;;;9.17;59.39;99929.66;5082397;27;19923;-76
2021/09/16 01:38:01;;;;;;;;;;;;;;;9.19;59.41;99927.94;5106198;27;19927;-77
2021/09/16 01:40:27;;;;;;;;;;;;;;;9.12;58.90;99934.03;5112710;27;20378;-77
2021/09/16 01:42:52;;;;;;;;;;;;;;;9.08;59.17;99940.94;5113543;27;19977;-76
2021/09/16 01:45:19;;;;;;;;;;;;;;;9.06;59.28;99939.22;5098743;27;19927;-76
2021/09/16 01:47:45;;;;;;;;;;;;;;;9.02;59.00;99940.94;5097532;27;19942;-76
2021/09/16 01:50:12;;;;;;;;;;;;;;;9.01;58.89;99936.63;5080473;27;20054;-77
2021/09/16 01:52:38;;;;;;;;;;;;;;;9.00;58.99;99951.31;5104616;27;19919;-77
2021/09/16 01:55:03;;;;;;;;;;;;;;;9.04;59.16;99952.19;5111694;27;19930;-77
2021/09/16 01:57:29;;;;;;;;;;;;;;;9.08;59.12;99956.50;5078381;27;20940;-77
2021/09/16 01:59:54;;;;;;;;;;;;;;;9.06;58.99;99954.78;5096152;27;19931;-78
2021/09/16 02:02:20;;;;;;;;;;;;;;;9.07;58.45;99956.50;5079593;27;20067;-76
2021/09/16 02:04:45;;;;;;;;;;;;;;;9.08;58.62;99960.84;5112348;27;19927;-77
2021/09/16 02:07:11;;;;;;;;;;;;;;;9.13;58.76;99959.13;5114756;27;19967;-78
2021/09/16 02:09:37;;;;;;;;;;;;;;;9.15;58.33;99962.59;5114447;27;20407;-75
2021/09/16 02:12:02;;;;;;;;;;;;;;;8.92;58.39;99926.22;5115481;27;19924;-76
2021/09/16 02:14:28;;;;;;;;;;;;;;;9.15;58.44;99965.19;5116620;27;19942;-77
2021/09/16 02:16:53;;;;;;;;;;;;;;;9.15;58.39;99957.38;5097029;27;20060;-76
2021/09/16 02:19:19;;;;;;;;;;;;;;;9.14;58.52;99966.03;5113809;27;19955;-76
2021/09/16 02:21:44;;;;;;;;;;;;;;;9.13;58.38;99969.50;5094375;27;20287;-75
2021/09/16 02:24:10;;;;;;;;;;;;;;;9.15;58.76;99970.38;5113081;27;19919;-76
2021/09/16 02:26:36;;;;;;;;;;;;;;;9.17;58.36;99971.22;5113616;27;20355;-76
2021/09/16 02:29:01;;;;;;;;;;;;;;;9.03;58.29;99946.13;5093927;27;19981;-76
2021/09/16 02:31:27;;;;;;;;;;;;;;;9.22;58.23;99974.66;5112986;27;19920;-76
2021/09/16 02:33:52;;;;;;;;;;;;;;;9.24;58.49;99978.13;5115029;27;20315;-76
2021/09/16 02:36:18;;;;;;;;;;;;;;;9.22;58.11;99982.47;5079222;27;20369;-77
2021/09/16 02:38:44;;;;;;;;;;;;;;;9.20;58.41;99979.00;5113502;27;19974;-77
2021/09/16 02:41:09;;;;;;;;;;;;;;;9.20;58.51;99981.59;5113582;27;19946;-76
2021/09/16 02:43:35;;;;;;;;;;;;;;;9.15;58.16;99979.00;5094017;27;20038;-77
2021/09/16 02:46:00;;;;;;;;;;;;;;;9.11;58.14;99986.81;5094976;27;20017;-77
2021/09/16 02:48:26;;;;;;;;;;;;;;;9.10;58.60;99978.13;5112324;27;19930;-75
2021/09/16 02:50:51;;;;;;;;;;;;;;;9.10;58.61;99985.06;5094061;27;19970;-78
2021/09/16 02:53:17;;;;;;;;;;;;;;;9.09;58.79;99984.19;5076974;27;20386;-77
2021/09/16 02:55:43;;;;;;;;;;;;;;;9.07;58.59;99990.25;5113976;27;19987;-76
2021/09/16 02:58:09;;;;;;;;;;;;;;;9.09;58.53;99996.31;5111724;27;19923;-76
2021/09/16 03:00:34;;;;;;;;;;;;;;;9.12;58.39;99997.19;5108520;27;19919;-75
2021/09/16 03:03:00;;;;;;;;;;;;;;;9.12;58.22;100001.53;5095944;27;20403;-77
2021/09/16 03:05:26;;;;;;;;;;;;;;;9.11;58.12;99994.59;5114195;27;19923;-76
2021/09/16 03:07:51;;;;;;;;;;;;;;;9.11;58.22;100007.56;5115533;27;19954;-77
2021/09/16 03:10:17;;;;;;;;;;;;;;;9.08;58.24;100011.03;5112350;27;19930;-77
2021/09/16 03:12:43;;;;;;;;;;;;;;;9.06;58.16;100012.75;5114696;27;20351;-77
2021/09/16 03:15:09;;;;;;;;;;;;;;;9.07;58.47;100016.22;5096918;27;19962;-78
2021/09/16 03:17:34;;;;;;;;;;;;;;;9.05;58.38;100018.78;5122356;27;19919;-77
2021/09/16 03:20:00;;;;;;;;;;;;;;;8.99;58.42;100019.66;5105659;27;19920;-77
2021/09/16 03:22:26;;;;;;;;;;;;;;;8.96;58.76;100019.66;5121162;27;19924;-77
2021/09/16 03:24:51;;;;;;;;;;;;;;;8.94;58.77;100021.38;5120013;27;20052;-78
2021/09/16 03:27:17;;;;;;;;;;;;;;;8.96;58.99;100029.19;5120630;27;19959;-77
2021/09/16 03:29:43;;;;;;;;;;;;;;;8.99;58.43;100022.25;5100204;27;19931;-76
2021/09/16 03:32:08;;;;;;;;;;;;;;;8.98;58.64;100028.31;5095517;27;19923;-77
2021/09/16 03:34:34;;;;;;;;;;;;;;;8.98;58.45;100028.31;5112374;27;19926;-77
2021/09/16 03:36:59;;;;;;;;;;;;;;;8.92;58.41;100027.44;5113515;27;19923;-77
2021/09/16 03:39:25;;;;;;;;;;;;;;;8.86;58.68;100018.78;5111241;27;19945;-78
2021/09/16 03:41:51;;;;;;;;;;;;;;;8.82;58.67;100031.75;5113224;27;19923;-76
2021/09/16 03:44:16;;;;;;;;;;;;;;;8.81;58.75;100030.91;5112037;27;19928;-77
2021/09/16 03:46:42;;;;;;;;;;;;;;;8.79;58.75;100031.75;5112785;27;20670;-77
2021/09/16 03:49:07;;;;;;;;;;;;;;;8.82;58.92;100036.94;5113361;27;20088;-76
2021/09/16 03:51:33;;;;;;;;;;;;;;;8.83;59.14;100036.94;5093405;28;19926;-78
2021/09/16 03:53:58;;;;;;;;;;;;;;;8.91;58.99;100036.97;5093259;28;19919;-78
2021/09/16 03:56:24;;;;;;;;;;;;;;;8.99;58.99;100043.03;5094975;28;19931;-76
2021/09/16 03:58:50;;;;;;;;;;;;;;;8.98;59.12;100043.03;5114427;27;20382;-77
2021/09/16 04:01:15;;;;;;;;;;;;;;;8.98;59.00;100043.88;5095396;28;20068;-77
2021/09/16 04:03:41;;;;;;;;;;;;;;;8.98;58.65;100050.81;5063719;28;20014;-76
2021/09/16 04:06:07;;;;;;;;;;;;;;;8.98;59.02;100054.28;5092336;28;20072;-77
2021/09/16 04:08:32;;;;;;;;;;;;;;;8.95;58.81;100061.19;5111778;28;20340;-75
2021/09/16 04:10:58;;;;;;;;;;;;;;;8.93;59.19;100058.63;5116979;28;20374;-73
2021/09/16 04:13:24;;;;;;;;;;;;;;;8.97;59.25;100059.47;5083244;28;19915;-75
2021/09/16 04:15:52;;;;;;;;;;;;;;;9.00;59.26;100056.88;5082714;28;20003;-77
2021/09/16 04:18:17;;;;;;;;;;;;;;;9.02;59.22;100068.16;5096544;28;19988;-76
2021/09/16 04:20:44;;;;;;;;;;;;;;;9.04;59.40;100069.88;5093677;28;19974;-77
2021/09/16 04:23:09;;;;;;;;;;;;;;;9.08;59.33;100070.72;5099185;27;19919;-77
2021/09/16 04:25:35;;;;;;;;;;;;;;;9.09;59.25;100074.19;5084914;27;19919;-78
2021/09/16 04:28:00;;;;;;;;;;;;;;;9.07;59.49;100086.31;5103024;27;19927;-77
2021/09/16 04:30:29;;;;;;;;;;;;;;;9.08;59.33;100082.84;5091338;27;19923;-78
2021/09/16 04:32:55;;;;;;;;;;;;;;;9.07;59.38;100076.78;5088479;27;19920;-77
2021/09/16 04:35:21;;;;;;;;;;;;;;;9.11;59.60;100083.72;5086808;27;19958;-78
2021/09/16 04:37:46;;;;;;;;;;;;;;;9.13;59.58;100083.72;5106252;27;19966;-77
2021/09/16 04:40:12;;;;;;;;;;;;;;;9.10;59.81;100083.72;5107688;27;19924;-77
2021/09/16 04:42:38;;;;;;;;;;;;;;;9.15;60.05;100082.00;5086135;27;19976;-76
2021/09/16 04:45:04;;;;;;;;;;;;;;;9.17;60.11;100081.13;5068578;27;19923;-77
2021/09/16 04:47:30;;;;;;;;;;;;;;;9.17;59.81;100083.72;5101961;27;19926;-77
2021/09/16 04:49:56;;;;;;;;;;;;;;;9.21;60.01;100089.78;5120485;27;19923;-76
2021/09/16 04:52:21;;;;;;;;;;;;;;;9.18;60.01;100095.84;5068518;27;19920;-77
2021/09/16 04:54:48;;;;;;;;;;;;;;;9.17;60.21;100091.53;5067419;27;19978;-78
2021/09/16 04:57:13;;;;;;;;;;;;;;;9.16;59.98;100091.50;5101159;27;19976;-78
2021/09/16 04:59:39;;;;;;;;;;;;;;;9.13;60.02;100099.31;5121567;27;19927;-78
2021/09/16 05:02:05;;;;;;;;;;;;;;;9.17;60.17;100095.84;5104400;27;20038;-77
2021/09/16 05:04:31;;;;;;;;;;;;;;;9.27;60.79;100096.75;5124657;27;20385;-77
2021/09/16 05:06:57;;;;;;;;;;;;;;;9.33;60.86;100091.53;5095323;27;19938;-77
2021/09/16 05:09:22;;;;;;;;;;;;;;;9.39;60.79;100098.44;5101596;27;19923;-77
2021/09/16 05:11:49;;;;;;;;;;;;;;;9.38;61.01;100095.00;5086128;27;19980;-77
2021/09/16 05:14:14;;;;;;;;;;;;;;;9.36;61.15;100096.72;5119718;27;19926;-75
2021/09/16 05:16:41;;;;;;;;;;;;;;;9.36;60.97;100099.31;5084598;27;19919;-77
2021/09/16 05:19:06;;;;;;;;;;;;;;;9.36;61.18;100098.47;5101109;27;19919;-77
2021/09/16 05:21:32;;;;;;;;;;;;;;;9.41;61.34;100101.91;5105005;27;20011;-76
2021/09/16 05:23:58;;;;;;;;;;;;;;;9.48;61.80;100101.94;5122381;27;19919;-77
2021/09/16 05:26:23;;;;;;;;;;;;;;;9.57;61.37;100101.09;5103793;27;19947;-77
2021/09/16 05:28:49;;;;;;;;;;;;;;;9.62;61.54;100101.06;5120951;27;20279;-77
2021/09/16 05:31:15;;;;;;;;;;;;;;;9.60;62.00;100103.66;5081478;27;19919;-77
2021/09/16 05:33:40;;;;;;;;;;;;;;;9.51;61.72;100101.06;5085510;27;19919;-75
2021/09/16 05:36:06;;;;;;;;;;;;;;;9.53;62.34;100101.94;5104319;27;19920;-78
2021/09/16 05:38:32;;;;;;;;;;;;;;;9.61;61.99;100108.00;5119356;27;21439;-78
2021/09/16 05:41:01;;;;;;;;;;;;;;;9.67;62.15;100095.88;5110407;27;19982;-76
2021/09/16 05:43:26;;;;;;;;;;;;;;;9.64;62.37;100105.41;5083700;27;19920;-75
2021/09/16 05:45:52;;;;;;;;;;;;;;;9.67;62.24;100112.34;5117194;27;19935;-74
2021/09/16 05:48:19;;;;;;;;;;;;;;;9.70;62.24;100098.47;5091574;27;19927;-75
2021/09/16 05:50:52;;;;;;;;;;;;;;;9.64;62.34;100104.53;5082643;27;19919;-77
2021/09/16 05:53:23;;;;;;;;;;;;;;;9.64;62.76;100104.53;5117224;27;19924;-75
2021/09/16 05:55:49;;;;;;;;;;;;;;;9.71;62.87;100110.59;5083883;27;19930;-75
2021/09/16 05:58:14;;;;;;;;;;;;;;;9.74;62.60;100106.25;5118728;27;19919;-76
2021/09/16 06:00:40;;;;;;;;;;;;;;;9.83;62.73;100101.94;5116579;27;20405;-76
2021/09/16 06:03:09;;;;;;;;;;;;;;;9.91;63.24;100103.66;5100700;27;19935;-75
2021/09/16 06:05:43;;;;;;;;;;;;;;;9.98;62.65;100106.25;5115000;27;19970;-77
2021/09/16 06:08:11;;;;;;;;;;;;;;;10.03;62.59;100110.56;5119078;27;19919;-76
2021/09/16 06:10:40;;;;;;;;;;;;;;;10.04;62.48;100111.44;5096009;27;20451;-78
2021/09/16 06:13:05;;;;;;;;;;;;;;;10.04;63.12;100114.03;5113272;27;19951;-75
2021/09/16 06:15:31;;;;;;;;;;;;;;;10.03;62.65;100120.13;5061375;27;20001;-77
2021/09/16 06:18:13;;;;;;;;;;;;;;;9.97;62.61;100114.91;5097905;27;19920;-75
2021/09/16 06:20:41;;;;;;;;;;;;;;;10.05;63.15;100118.34;5111325;27;20236;-76
2021/09/16 06:23:15;;;;;;;;;;;;;;;10.15;63.13;100124.44;5096487;27;20569;-76
2021/09/16 06:26:24;;;;;;;;;;;;;;;10.24;63.45;100119.19;5098598;27;19919;-79
2021/09/16 06:31:41;;;;;;;;;;;;;;;10.36;63.09;100129.59;5060598;27;19919;-75
2021/09/16 06:34:07;;;;;;;;;;;;;;;10.41;63.07;100132.19;5117674;27;19927;-75
2021/09/16 06:36:38;;;;;;;;;;;;;;;10.50;62.74;100129.53;5080796;27;20386;-76
2021/09/16 06:39:11;;;;;;;;;;;;;;;10.58;63.06;100126.94;5099555;27;19926;-75
2021/09/16 06:41:39;;;;;;;;;;;;;;;10.63;63.67;100132.13;5091711;27;19927;-75
2021/09/16 06:44:05;;;;;;;;;;;;;;;10.61;63.24;100132.09;5100261;27;19920;-76
2021/09/16 06:46:31;;;;;;;;;;;;;;;10.69;63.61;100142.50;5099521;27;20347;-81
2021/09/16 06:48:57;;;;;;;;;;;;;;;10.73;63.84;100133.78;5099085;27;19951;-75
2021/09/16 06:51:22;;;;;;;;;;;;;;;10.80;63.53;100140.72;5117660;27;20437;-75
2021/09/16 06:53:48;;;;;;;;;;;;;;;10.97;63.63;100143.25;5117635;27;20212;-74
2021/09/16 06:56:14;;;;;;;;;;;;;;;11.14;63.54;100139.69;5098449;27;19924;-76
2021/09/16 06:58:39;;;;;;;;;;;;;;;11.31;63.70;100142.19;5115699;27;20474;-75
2021/09/16 07:01:05;;;;;;;;;;;;;;;11.40;63.50;100141.25;5098110;27;19931;-76
2021/09/16 07:03:31;;;;;;;;;;;;;;;11.55;63.49;100135.94;5118890;27;19951;-75
2021/09/16 07:05:56;;;;;;;;;;;;;;;11.75;63.54;100143.59;5119289;27;19923;-79
2021/09/16 07:08:22;;;;;;;;;;;;;;;11.87;63.20;100144.38;5108795;27;19926;-77
2021/09/16 07:10:47;;;;;;;;;;;;;;;11.96;62.91;100141.69;5139563;27;19904;-76
2021/09/16 07:13:13;;;;;;;;;;;;;;;12.08;62.74;100139.88;5175889;22;19932;-77
2021/09/16 07:15:40;;;;;;;;;;;;;;;12.24;62.92;100137.97;5070076;28;19924;-76
2021/09/16 07:18:06;;;;;;;;;;;;;;;12.62;62.83;100136.66;5068001;28;19930;-78
2021/09/16 07:20:32;;;;;;;;;;;;;;;13.04;62.12;100136.16;5048526;28;20277;-77
2021/09/16 07:22:57;;;;;;;;;;;;;;;13.21;61.83;100136.78;5086181;28;20020;-76
2021/09/16 07:25:26;;;;;;;;;;;;;;;13.32;61.55;100130.53;5082509;28;19931;-77
2021/09/16 07:28:03;;;;;;;;;;;;;;;13.34;61.03;100139.22;5051393;28;20019;-75
2021/09/16 07:30:29;;;;;;;;;;;;;;;13.42;60.95;100145.22;5085733;28;20355;-77
2021/09/16 07:33:05;;;;;;;;;;;;;;;13.82;61.24;100136.72;5089604;28;20368;-78
2021/09/16 07:35:34;;;;;;;;;;;;;;;14.41;60.64;100138.31;5037315;28;19942;-76
2021/09/16 07:37:59;;;;;;;;;;;;;;;15.08;60.10;100138.72;5085656;28;20379;-76
2021/09/16 07:40:25;;;;;;;;;;;;;;;15.43;58.17;100142.28;5047517;28;19928;-77
2021/09/16 07:42:55;;;;;;;;;;;;;;;15.76;58.58;100132.75;5082079;28;19930;-80
2021/09/16 07:45:27;;;;;;;;;;;;;;;16.07;57.36;100132.00;5065796;28;19963;-76
2021/09/16 07:48:06;;;;;;;;;;;;;;;16.15;57.22;100139.66;5060413;28;19951;-77
2021/09/16 07:50:34;;;;;;;;;;;;;;;16.23;56.57;100145.56;5064440;28;20000;-78
2021/09/16 07:53:00;;;;;;;;;;;;;;;16.07;56.62;100150.38;5067048;28;20099;-78
2021/09/16 07:55:26;;;;;;;;;;;;;;;15.78;56.31;100157.19;5081928;28;19924;-77
2021/09/16 07:57:51;;;;;;;;;;;;;;;15.66;56.99;100153.09;5090827;28;19924;-77
2021/09/16 08:00:17;;;;;;;;;;;;;;;15.54;57.02;100157.78;5069979;28;19924;-78
2021/09/16 08:02:43;;;;;;;;;;;;;;;15.48;56.73;100153.53;5071681;28;20462;-77
2021/09/16 08:05:10;;;;;;;;;;;;;;;15.36;57.13;100145.03;5087561;28;19955;-77
2021/09/16 08:07:44;;;;;;;;;;;;;;;15.31;57.02;100153.94;5068905;28;19920;-76
2021/09/16 08:10:11;;;;;;;;;;;;;;;15.21;56.81;100154.16;5040936;28;20258;-77
2021/09/16 08:12:39;;;;;;;;;;;;;;;15.07;57.15;100161.44;5026804;28;21199;-78
2021/09/16 08:15:10;;;;;;;;;;;;;;;14.97;56.69;100157.31;5029849;28;20018;-77
2021/09/16 08:17:39;;;;;;;;;;;;;;;14.74;56.67;100154.25;5058017;28;19959;-76
2021/09/16 08:20:09;;;;;;;;;;;;;;;14.66;56.98;100155.28;5044347;28;19920;-76
2021/09/16 08:22:35;;;;;;;;;;;;;;;14.73;57.34;100151.69;5061795;28;19929;-77
2021/09/16 08:25:07;;;;;;;;;;;;;;;15.00;57.00;100158.09;5061747;28;19927;-78
2021/09/16 08:27:33;;;;;;;;;;;;;;;14.98;56.75;100161.66;5045700;28;20407;-76
2021/09/16 08:29:59;;;;;;;;;;;;;;;14.84;56.01;100156.69;5046973;28;19920;-77
2021/09/16 08:32:25;;;;;;;;;;;;;;;14.56;55.98;100165.94;5051848;28;20007;-75
2021/09/16 08:34:50;;;;;;;;;;;;;;;14.22;56.67;100165.72;5065525;28;20260;-75
2021/09/16 08:37:17;;;;;;;;;;;;;;;13.95;56.71;100171.38;5052872;28;20113;-78
2021/09/16 08:39:43;;;;;;;;;;;;;;;13.82;57.03;100173.34;5034008;28;19927;-76
2021/09/16 08:42:13;;;;;;;;;;;;;;;13.65;57.41;100172.75;5066536;28;19928;-75
2021/09/16 08:44:51;;;;;;;;;;;;;;;13.55;57.67;100172.03;5062152;28;19966;-76
2021/09/16 08:47:20;;;;;;;;;;;;;;;13.49;57.74;100173.00;5062511;28;19932;-77
2021/09/16 08:50:02;;;;;;;;;;;;;;;13.42;57.34;100184.41;5063166;28;20371;-76
2021/09/16 08:52:39;;;;;;;;;;;;;;;13.31;57.84;100179.31;5031590;28;19927;-75
2021/09/16 08:55:06;;;;;;;;;;;;;;;13.24;57.93;100182.91;5034972;28;19958;-74
2021/09/16 08:57:34;;;;;;;;;;;;;;;12.93;58.04;100142.38;5049106;28;19920;-75
2021/09/16 09:00:00;;;;;;;;;;;;;;;13.06;57.77;100190.09;5063846;28;19935;-78
2021/09/16 09:02:26;;;;;;;;;;;;;;;13.02;58.17;100188.41;5049595;28;20307;-77
2021/09/16 09:04:53;;;;;;;;;;;;;;;13.03;58.19;100194.50;5049998;28;21137;-77
2021/09/16 09:07:19;;;;;;;;;;;;;;;13.05;58.14;100197.97;5067023;28;20007;-76
2021/09/16 09:09:46;;;;;;;;;;;;;;;13.02;58.11;100196.25;5053359;28;20073;-76
2021/09/16 09:12:12;;;;;;;;;;;;;;;13.04;58.10;100201.47;5069525;28;19924;-75
2021/09/16 09:14:40;;;;;;;;;;;;;;;13.05;57.98;100197.97;5070636;28;19920;-76
2021/09/16 09:17:22;;;;;;;;;;;;;;;13.10;58.02;100202.25;5053121;28;19957;-75
2021/09/16 09:19:48;;;;;;;;;;;;;;;13.15;57.87;100202.16;5071427;28;19921;-76
2021/09/16 09:22:14;;;;;;;;;;;;;;;13.20;57.87;100199.53;5085074;28;19934;-77
2021/09/16 09:24:43;;;;;;;;;;;;;;;13.47;57.79;100195.69;5078214;28;19951;-78
2021/09/16 09:27:20;;;;;;;;;;;;;;;13.74;57.29;100195.28;5082284;28;20172;-76
2021/09/16 09:30:01;;;;;;;;;;;;;;;13.91;56.59;100195.03;5064314;28;19920;-76
2021/09/16 09:32:42;;;;;;;;;;;;;;;13.96;56.53;100187.97;5081258;28;19964;-76
2021/09/16 09:35:22;;;;;;;;;;;;;;;13.82;56.40;100183.81;5060999;28;19920;-75
2021/09/16 09:37:48;;;;;;;;;;;;;;;13.80;56.54;100185.56;5082216;28;19984;-77
2021/09/16 09:40:13;;;;;;;;;;;;;;;14.03;56.82;100197.41;5050972;28;19963;-76
2021/09/16 09:42:39;;;;;;;;;;;;;;;14.40;56.23;100188.94;5063549;28;19970;-78
2021/09/16 09:45:06;;;;;;;;;;;;;;;14.52;55.31;100187.84;5050908;28;19920;-76
2021/09/16 09:47:39;;;;;;;;;;;;;;;14.59;55.40;100193.81;5053742;28;19959;-76
2021/09/16 09:50:15;;;;;;;;;;;;;;;14.57;54.95;100192.97;5045600;28;19959;-77
2021/09/16 09:52:40;;;;;;;;;;;;;;;14.37;54.97;100199.47;5049411;28;19920;-77
2021/09/16 09:55:16;;;;;;;;;;;;;;;14.24;55.17;100209.28;5066424;28;19949;-75
2021/09/16 09:57:42;;;;;;;;;;;;;;;14.06;55.08;100207.00;5051184;28;19921;-76
2021/09/16 10:00:09;;;;;;;;;;;;;;;13.85;55.41;100207.31;5050570;28;19928;-75
2021/09/16 10:02:40;;;;;;;;;;;;;;;13.69;55.55;100208.44;5061872;28;19962;-77
2021/09/16 10:05:26;;;;;;;;;;;;;;;13.55;55.83;100212.13;5065851;28;19920;-77
2021/09/16 10:07:52;;;;;;;;;;;;;;;13.46;56.07;100211.41;5030635;28;19927;-77
2021/09/16 10:10:18;;;;;;;;;;;;;;;13.38;56.15;100211.44;5062562;28;19924;-75
2021/09/16 10:12:45;;;;;;;;;;;;;;;13.31;56.21;100213.28;5065643;28;19932;-76
2021/09/16 10:15:16;;;;;;;;;;;;;;;13.23;56.37;100217.78;5051338;28;19954;-75
2021/09/16 10:17:42;;;;;;;;;;;;;;;13.15;56.46;100217.84;5064667;28;19921;-76
2021/09/16 10:20:08;;;;;;;;;;;;;;;13.00;56.42;100221.53;5044945;28;20337;-76
2021/09/16 10:22:37;;;;;;;;;;;;;;;12.86;56.61;100220.81;5043300;28;19945;-75
2021/09/16 10:25:03;;;;;;;;;;;;;;;12.75;56.50;100219.22;5062428;28;19921;-75
2021/09/16 10:27:41;;;;;;;;;;;;;;;12.60;56.61;100222.84;5062350;28;20023;-75
2021/09/16 10:30:22;;;;;;;;;;;;;;;12.47;56.34;100239.50;5063546;28;20031;-75
2021/09/16 10:33:03;;;;;;;;;;;;;;;12.28;56.72;100237.06;5045051;28;19920;-76
2021/09/16 10:35:30;;;;;;;;;;;;;;;12.18;56.79;100232.81;5034005;28;19962;-78
2021/09/16 10:37:55;;;;;;;;;;;;;;;12.20;57.07;100233.69;5074469;28;19920;-77
2021/09/16 10:40:21;;;;;;;;;;;;;;;12.22;57.03;100237.13;5057939;28;19932;-77
2021/09/16 10:42:48;;;;;;;;;;;;;;;12.20;56.72;100229.31;5027902;28;20414;-76
2021/09/16 10:45:14;;;;;;;;;;;;;;;12.28;56.65;100233.59;5063060;28;19962;-78
2021/09/16 10:47:40;;;;;;;;;;;;;;;12.34;56.74;100236.16;5064551;28;20011;-76
2021/09/16 10:50:19;;;;;;;;;;;;;;;12.48;56.50;100231.66;5056730;28;20416;-77
2021/09/16 10:52:45;;;;;;;;;;;;;;;12.71;56.13;100224.47;5046117;28;19924;-76
2021/09/16 10:55:11;;;;;;;;;;;;;;;12.96;55.76;100225.06;5045122;28;20446;-78
2021/09/16 10:57:50;;;;;;;;;;;;;;;13.22;55.24;100222.13;5044493;28;19927;-77
2021/09/16 11:00:38;;;;;;;;;;;;;;;13.42;54.68;100207.09;5057472;27;19921;-77
2021/09/16 11:03:17;;;;;;;;;;;;;;;13.60;54.48;100206.81;5077394;27;19982;-78
2021/09/16 11:05:57;;;;;;;;;;;;;;;13.73;54.16;100212.75;5039337;28;20007;-80
2021/09/16 11:08:43;;;;;;;;;;;;;;;13.80;53.92;100218.72;5039187;28;19968;-78
2021/09/16 11:11:09;;;;;;;;;;;;;;;13.79;53.56;100223.09;5025537;28;19920;-78
2021/09/16 11:13:39;;;;;;;;;;;;;;;13.75;53.60;100221.44;5039561;28;19926;-79
2021/09/16 11:16:06;;;;;;;;;;;;;;;13.66;53.38;100216.31;5037971;28;19929;-78
2021/09/16 11:18:32;;;;;;;;;;;;;;;13.63;53.56;100222.47;5041533;28;20390;-78
2021/09/16 11:21:12;;;;;;;;;;;;;;;13.66;53.44;100222.44;5060000;27;19920;-77
2021/09/16 11:23:50;;;;;;;;;;;;;;;13.70;53.19;100218.84;5081391;27;19924;-80
2021/09/16 11:26:29;;;;;;;;;;;;;;;13.56;53.38;100226.06;5079098;27;19970;-80
2021/09/16 11:29:09;;;;;;;;;;;;;;;13.50;53.12;100221.78;5082684;27;19954;-79
2021/09/16 11:31:47;;;;;;;;;;;;;;;13.44;53.26;100219.25;5080159;27;19928;-78
2021/09/16 11:34:25;;;;;;;;;;;;;;;13.38;53.27;100219.28;5054566;27;19971;-78
2021/09/16 11:37:08;;;;;;;;;;;;;;;13.36;53.45;100223.69;5073825;27;20302;-77
2021/09/16 11:39:56;;;;;;;;;;;;;;;13.29;53.08;100222.06;5076156;27;19932;-79
2021/09/16 11:42:37;;;;;;;;;;;;;;;13.26;53.17;100217.72;5102755;27;19973;-77
2021/09/16 11:45:15;;;;;;;;;;;;;;;13.25;53.35;100221.19;5075752;27;20029;-76
2021/09/16 11:47:58;;;;;;;;;;;;;;;13.19;53.00;100226.53;5077070;27;20014;-79
2021/09/16 11:50:36;;;;;;;;;;;;;;;13.10;52.82;100222.28;5077532;27;20027;-78
2021/09/16 11:53:22;;;;;;;;;;;;;;;13.01;52.96;100230.22;5092200;27;19928;-76
2021/09/16 11:55:49;;;;;;;;;;;;;;;12.87;53.17;100228.66;5076140;28;19927;-78
2021/09/16 11:58:32;;;;;;;;;;;;;;;12.79;53.28;100230.47;5090032;27;19966;-77
2021/09/16 12:01:09;;;;;;;;;;;;;;;12.71;53.33;100230.56;5062303;27;2192000;-76
2021/09/16 12:03:49;;;;;;;;;;;;;;;12.62;53.42;100223.69;5092589;27;19928;-78
2021/09/16 12:06:34;;;;;;;;;;;;;;;12.62;53.64;100230.66;5100393;27;20476;-80
2021/09/16 12:09:15;;;;;;;;;;;;;;;12.58;53.48;100226.38;5161838;27;20358;-78
2021/09/16 12:11:59;;;;;;;;;;;;;;;12.62;53.62;100220.22;5091299;27;19973;-78
2021/09/16 12:14:36;;;;;;;;;;;;;;;12.69;53.45;100211.44;5077013;27;19928;-77
2021/09/16 12:17:15;;;;;;;;;;;;;;;12.84;53.48;100215.63;5077034;27;19924;-78
2021/09/16 12:19:55;;;;;;;;;;;;;;;12.92;53.14;100208.53;5079245;27;19932;-78
2021/09/16 12:22:33;;;;;;;;;;;;;;;13.04;53.11;100209.28;5080248;27;19921;-76
2021/09/16 12:25:11;;;;;;;;;;;;;;;13.07;52.76;100211.88;5058430;27;19921;-77
2021/09/16 12:28:03;;;;;;;;;;;;;;;13.18;52.99;100215.19;5120452;27;19928;-76
2021/09/16 12:30:40;;;;;;;;;;;;;;;13.43;52.82;100216.66;5081170;27;19997;-77
2021/09/16 12:33:44;;;;;;;;;;;;;;;13.60;52.26;100205.94;5116280;27;19965;-79
2021/09/16 12:36:23;;;;;;;;;;;;;;;13.59;52.28;100210.31;5054307;28;20302;-77
2021/09/16 12:39:08;;;;;;;;;;;;;;;13.62;52.30;100202.44;5116086;27;19982;-79
2021/09/16 12:41:52;;;;;;;;;;;;;;;13.64;52.32;100203.28;5060126;27;19974;-79
2021/09/16 12:44:39;;;;;;;;;;;;;;;13.55;52.25;100209.53;5067669;28;19967;-78
2021/09/16 12:47:18;;;;;;;;;;;;;;;13.37;52.06;100200.16;5109615;27;19925;-79
2021/09/16 12:49:56;;;;;;;;;;;;;;;13.28;52.37;100202.88;5059963;27;19924;-76
2021/09/16 12:52:39;;;;;;;;;;;;;;;13.25;52.72;100203.78;5080961;27;19924;-77
2021/09/16 12:55:18;;;;;;;;;;;;;;;13.15;52.74;100204.78;5112298;27;19924;-80